sensor_id;sensor_type;location;lat;lon;timestamp;pressure;altitude;pressure_sealevel;temperature;humidity
35045;BME280;21231;48.394;34.964;2022-11-20T15:01:25;100112.97;;;1.22;100.00
35045;BME280;21231;48.394;34.964;2022-11-20T15:04:13;100120.88;;;1.25;100.00
35045;BME280;21231;48.394;34.964;2022-11-20T15:07:00;100119.34;;;1.27;100.00
35045;BME280;21231;48.394;34.964;2022-11-20T15:09:46;100118.59;;;1.28;100.00
35045;BME280;21231;48.394;34.964;2022-11-20T15:12:35;100126.50;;;1.31;100.00
35045;BME280;21231;48.394;34.964;2022-11-20T15:15:35;100134.25;;;1.33;100.00
35045;BME280;21231;48.394;34.964;2022-11-20T15:18:26;100132.94;;;1.27;100.00
35045;BME280;21231;48.394;34.964;2022-11-20T15:21:14;100128.28;;;1.32;100.00
35045;BME280;21231;48.394;34.964;2022-11-20T15:24:01;100097.81;;;1.32;100.00
35045;BME280;21231;48.394;34.964;2022-11-20T15:26:47;100100.34;;;1.32;100.00
35045;BME280;21231;48.394;34.964;2022-11-20T15:29:33;100102.88;;;1.32;100.00
35045;BME280;21231;48.394;34.964;2022-11-20T15:32:19;100100.50;;;1.34;100.00
35045;BME280;21231;48.394;34.964;2022-11-20T15:35:07;100079.00;;;1.30;100.00
35045;BME280;21231;48.394;34.964;2022-11-20T15:37:54;100072.31;;;1.31;100.00
35045;BME280;21231;48.394;34.964;2022-11-20T15:40:40;100072.63;;;1.25;100.00
35045;BME280;21231;48.394;34.964;2022-11-20T15:43:26;100084.09;;;1.30;100.00
35045;BME280;21231;48.394;34.964;2022-11-20T15:46:14;100070.63;;;1.31;100.00
35045;BME280;21231;48.394;34.964;2022-11-20T15:49:01;100085.41;;;1.35;100.00
35045;BME280;21231;48.394;34.964;2022-11-20T15:51:48;100083.75;;;1.36;100.00
35045;BME280;21231;48.394;34.964;2022-11-20T15:54:34;100072.69;;;1.35;100.00
35045;BME280;21231;48.394;34.964;2022-11-20T15:57:20;100063.59;;;1.37;100.00
35045;BME280;21231;48.394;34.964;2022-11-20T16:00:07;100070.59;;;1.40;100.00
35045;BME280;21231;48.394;34.964;2022-11-20T16:02:55;100074.16;;;1.42;100.00
35045;BME280;21231;48.394;34.964;2022-11-20T16:05:41;100092.06;;;1.44;100.00
35045;BME280;21231;48.394;34.964;2022-11-20T16:08:27;100092.22;;;1.45;100.00
35045;BME280;21231;48.394;34.964;2022-11-20T16:11:17;100088.91;;;1.46;100.00
35045;BME280;21231;48.394;34.964;2022-11-20T16:14:03;100102.81;;;1.50;100.00
35045;BME280;21231;48.394;34.964;2022-11-20T16:17:08;100104.28;;;1.48;100.00
35045;BME280;21231;48.394;34.964;2022-11-20T16:19:54;100091.75;;;1.49;100.00
35045;BME280;21231;48.394;34.964;2022-11-20T16:22:40;100083.06;;;1.47;100.00
35045;BME280;21231;48.394;34.964;2022-11-20T16:25:27;100066.06;;;1.46;100.00
35045;BME280;21231;48.394;34.964;2022-11-20T16:28:13;100059.34;;;1.47;100.00
35045;BME280;21231;48.394;34.964;2022-11-20T16:31:13;100053.50;;;1.48;100.00
35045;BME280;21231;48.394;34.964;2022-11-20T16:34:02;100053.78;;;1.51;100.00
35045;BME280;21231;48.394;34.964;2022-11-20T16:36:55;100039.41;;;1.51;100.00
35045;BME280;21231;48.394;34.964;2022-11-20T16:39:41;100036.25;;;1.54;100.00
35045;BME280;21231;48.394;34.964;2022-11-20T16:42:27;100036.25;;;1.54;100.00
35045;BME280;21231;48.394;34.964;2022-11-20T16:45:13;100034.13;;;1.59;100.00
35045;BME280;21231;48.394;34.964;2022-11-20T16:48:05;100021.72;;;1.62;100.00
35045;BME280;21231;48.394;34.964;2022-11-20T16:50:52;100008.25;;;1.63;100.00
35045;BME280;21231;48.394;34.964;2022-11-20T16:53:38;100001.78;;;1.66;100.00
35045;BME280;21231;48.394;34.964;2022-11-20T16:56:26;100000.28;;;1.69;100.00
35045;BME280;21231;48.394;34.964;2022-11-20T16:59:12;99983.50;;;1.71;100.00
35045;BME280;21231;48.394;34.964;2022-11-20T17:01:58;99988.72;;;1.72;100.00
35045;BME280;21231;48.394;34.964;2022-11-20T17:04:44;99982.66;;;1.70;100.00
35045;BME280;21231;48.394;34.964;2022-11-20T17:07:30;99971.22;;;1.75;100.00
35045;BME280;21231;48.394;34.964;2022-11-20T17:10:17;99967.16;;;1.77;100.00
35045;BME280;21231;48.394;34.964;2022-11-20T17:13:03;99961.06;;;1.75;100.00
35045;BME280;21231;48.394;34.964;2022-11-20T17:15:49;99961.97;;;1.76;100.00
35045;BME280;21231;48.394;34.964;2022-11-20T17:18:35;99971.75;;;1.82;100.00
35045;BME280;21231;48.394;34.964;2022-11-20T17:21:22;99964.53;;;1.86;100.00
35045;BME280;21231;48.394;34.964;2022-11-20T17:24:11;99967.34;;;1.89;100.00
35045;BME280;21231;48.394;34.964;2022-11-20T17:26:57;99965.97;;;1.93;100.00
35045;BME280;21231;48.394;34.964;2022-11-20T17:29:44;99963.69;;;1.96;100.00
35045;BME280;21231;48.394;34.964;2022-11-20T17:32:30;99964.22;;;2.02;100.00
35045;BME280;21231;48.394;34.964;2022-11-20T17:35:18;99954.94;;;2.03;100.00
35045;BME280;21231;48.394;34.964;2022-11-20T17:38:04;99938.16;;;2.05;100.00
35045;BME280;21231;48.394;34.964;2022-11-20T17:40:50;99931.81;;;2.10;100.00
35045;BME280;21231;48.394;34.964;2022-11-20T17:43:37;99937.19;;;2.13;100.00
35045;BME280;21231;48.394;34.964;2022-11-20T17:46:25;99927.28;;;2.16;100.00
35045;BME280;21231;48.394;34.964;2022-11-20T17:49:12;99925.75;;;2.18;100.00
35045;BME280;21231;48.394;34.964;2022-11-20T17:51:58;99911.66;;;2.22;100.00
35045;BME280;21231;48.394;34.964;2022-11-20T17:54:44;99917.47;;;2.21;100.00
35045;BME280;21231;48.394;34.964;2022-11-20T17:57:30;99926.53;;;2.28;100.00
35045;BME280;21231;48.394;34.964;2022-11-20T18:00:35;99920.06;;;2.31;100.00
35045;BME280;21231;48.394;34.964;2022-11-20T18:03:23;99930.59;;;2.36;100.00
35045;BME280;21231;48.394;34.964;2022-11-20T18:06:18;99919.31;;;2.43;100.00
35045;BME280;21231;48.394;34.964;2022-11-20T18:09:05;99916.25;;;2.47;100.00
35045;BME280;21231;48.394;34.964;2022-11-20T18:11:51;99906.84;;;2.46;100.00
35045;BME280;21231;48.394;34.964;2022-11-20T18:14:37;99904.44;;;2.48;100.00
35045;BME280;21231;48.394;34.964;2022-11-20T18:17:25;99902.03;;;2.49;100.00
35045;BME280;21231;48.394;34.964;2022-11-20T18:20:11;99910.66;;;2.51;100.00
35045;BME280;21231;48.394;34.964;2022-11-20T18:23:14;99903.28;;;2.54;100.00
35045;BME280;21231;48.394;34.964;2022-11-20T18:26:00;99889.94;;;2.57;100.00
35045;BME280;21231;48.394;34.964;2022-11-20T18:28:47;99894.50;;;2.61;100.00
35045;BME280;21231;48.394;34.964;2022-11-20T18:31:33;99888.28;;;2.68;100.00
35045;BME280;21231;48.394;34.964;2022-11-20T18:34:19;99889.31;;;2.70;100.00
35045;BME280;21231;48.394;34.964;2022-11-20T18:37:08;99887.03;;;2.73;100.00
35045;BME280;21231;48.394;34.964;2022-11-20T18:39:57;99871.13;;;2.76;100.00
35045;BME280;21231;48.394;34.964;2022-11-20T18:42:43;99878.84;;;2.77;100.00
35045;BME280;21231;48.394;34.964;2022-11-20T18:45:48;99883.19;;;2.78;100.00
35045;BME280;21231;48.394;34.964;2022-11-20T18:48:34;99879.25;;;2.82;100.00
35045;BME280;21231;48.394;34.964;2022-11-20T18:51:20;99877.09;;;2.87;100.00
35045;BME280;21231;48.394;34.964;2022-11-20T18:54:07;99863.84;;;2.91;100.00
35045;BME280;21231;48.394;34.964;2022-11-20T18:56:53;99853.16;;;2.95;100.00
35045;BME280;21231;48.394;34.964;2022-11-20T18:59:40;99847.63;;;3.01;100.00
35045;BME280;21231;48.394;34.964;2022-11-20T19:02:29;99847.50;;;3.09;100.00
35045;BME280;21231;48.394;34.964;2022-11-20T19:05:15;99848.09;;;3.17;100.00
35045;BME280;21231;48.394;34.964;2022-11-20T19:08:01;99850.91;;;3.20;100.00
35045;BME280;21231;48.394;34.964;2022-11-20T19:10:47;99834.84;;;3.21;100.00
35045;BME280;21231;48.394;34.964;2022-11-20T19:13:36;99836.75;;;3.24;100.00
35045;BME280;21231;48.394;34.964;2022-11-20T19:16:23;99828.59;;;3.28;100.00
35045;BME280;21231;48.394;34.964;2022-11-20T19:19:14;99836.09;;;3.37;100.00
35045;BME280;21231;48.394;34.964;2022-11-20T19:22:07;99837.31;;;3.42;100.00
35045;BME280;21231;48.394;34.964;2022-11-20T19:24:55;99836.81;;;3.46;100.00
35045;BME280;21231;48.394;34.964;2022-11-20T19:27:44;99825.31;;;3.52;100.00
35045;BME280;21231;48.394;34.964;2022-11-20T19:30:31;99827.03;;;3.63;100.00
35045;BME280;21231;48.394;34.964;2022-11-20T19:33:19;99826.53;;;3.67;100.00
35045;BME280;21231;48.394;34.964;2022-11-20T19:36:14;99813.47;;;3.74;100.00
35045;BME280;21231;48.394;34.964;2022-11-20T19:39:03;99819.03;;;3.81;100.00
35045;BME280;21231;48.394;34.964;2022-11-20T19:41:51;99810.88;;;3.85;100.00
35045;BME280;21231;48.394;34.964;2022-11-20T19:44:37;99811.72;;;3.85;100.00
35045;BME280;21231;48.394;34.964;2022-11-20T19:47:24;99820.41;;;3.87;100.00
35045;BME280;21231;48.394;34.964;2022-11-20T19:50:30;99815.44;;;3.89;100.00
35045;BME280;21231;48.394;34.964;2022-11-20T19:53:16;99826.88;;;3.94;100.00
35045;BME280;21231;48.394;34.964;2022-11-20T19:56:03;99809.78;;;3.93;100.00
35045;BME280;21231;48.394;34.964;2022-11-20T19:58:49;99817.91;;;3.99;100.00
35045;BME280;21231;48.394;34.964;2022-11-20T20:01:37;99815.75;;;3.94;100.00
35045;BME280;21231;48.394;34.964;2022-11-20T20:04:22;99812.19;;;3.80;100.00
35045;BME280;21231;48.394;34.964;2022-11-20T20:07:09;99816.38;;;3.79;100.00
35045;BME280;21231;48.394;34.964;2022-11-20T20:09:58;99814.59;;;3.78;100.00
35045;BME280;21231;48.394;34.964;2022-11-20T20:12:45;99808.72;;;3.79;100.00
35045;BME280;21231;48.394;34.964;2022-11-20T20:15:31;99819.16;;;3.82;100.00
35045;BME280;21231;48.394;34.964;2022-11-20T20:18:21;99821.72;;;3.82;100.00
35045;BME280;21231;48.394;34.964;2022-11-20T20:21:09;99822.47;;;3.81;100.00
35045;BME280;21231;48.394;34.964;2022-11-20T20:23:56;99810.28;;;3.77;100.00
35045;BME280;21231;48.394;34.964;2022-11-20T20:26:46;99812.19;;;3.80;100.00
35045;BME280;21231;48.394;34.964;2022-11-20T20:29:33;99816.50;;;3.81;100.00
35045;BME280;21231;48.394;34.964;2022-11-20T20:32:19;99811.41;;;3.81;100.00
35045;BME280;21231;48.394;34.964;2022-11-20T20:35:05;99802.97;;;3.82;100.00
35045;BME280;21231;48.394;34.964;2022-11-20T20:37:54;99808.97;;;3.82;100.00
35045;BME280;21231;48.394;34.964;2022-11-20T20:40:49;99802.19;;;3.83;100.00
35045;BME280;21231;48.394;34.964;2022-11-20T20:43:37;99805.66;;;3.83;100.00
35045;BME280;21231;48.394;34.964;2022-11-20T20:46:44;99815.19;;;3.86;100.00
35045;BME280;21231;48.394;34.964;2022-11-20T20:49:32;99803.09;;;3.83;100.00
35045;BME280;21231;48.394;34.964;2022-11-20T20:52:20;99813.41;;;3.85;100.00
35045;BME280;21231;48.394;34.964;2022-11-20T20:55:07;99814.28;;;3.85;100.00
35045;BME280;21231;48.394;34.964;2022-11-20T20:57:55;99815.19;;;3.86;100.00
35045;BME280;21231;48.394;34.964;2022-11-20T21:00:47;99813.00;;;3.91;100.00
35045;BME280;21231;48.394;34.964;2022-11-20T21:03:34;99810.66;;;3.94;100.00
35045;BME280;21231;48.394;34.964;2022-11-20T21:06:23;99805.94;;;3.98;100.00
35045;BME280;21231;48.394;34.964;2022-11-20T21:09:10;99810.13;;;3.98;100.00
35045;BME280;21231;48.394;34.964;2022-11-20T21:11:56;99811.28;;;4.01;100.00
35045;BME280;21231;48.394;34.964;2022-11-20T21:14:42;99801.06;;;4.01;100.00
35045;BME280;21231;48.394;34.964;2022-11-20T21:17:28;99807.53;;;4.08;100.00
35045;BME280;21231;48.394;34.964;2022-11-20T21:20:14;99804.84;;;4.07;100.00
35045;BME280;21231;48.394;34.964;2022-11-20T21:23:22;99805.72;;;4.07;100.00
35045;BME280;21231;48.394;34.964;2022-11-20T21:26:08;99808.41;;;4.09;100.00
35045;BME280;21231;48.394;34.964;2022-11-20T21:28:55;99805.09;;;4.10;100.00
35045;BME280;21231;48.394;34.964;2022-11-20T21:31:42;99802.63;;;4.11;100.00
35045;BME280;21231;48.394;34.964;2022-11-20T21:34:28;99789.13;;;4.12;100.00
35045;BME280;21231;48.394;34.964;2022-11-20T21:37:14;99783.38;;;4.15;100.00
35045;BME280;21231;48.394;34.964;2022-11-20T21:40:03;99785.03;;;4.14;100.00
35045;BME280;21231;48.394;34.964;2022-11-20T21:42:49;99782.72;;;4.18;100.00
35045;BME280;21231;48.394;34.964;2022-11-20T21:45:35;99787.16;;;4.20;100.00
35045;BME280;21231;48.394;34.964;2022-11-20T21:48:21;99773.63;;;4.21;100.00
35045;BME280;21231;48.394;34.964;2022-11-20T21:53:58;99769.00;;;4.27;100.00
35045;BME280;21231;48.394;34.964;2022-11-20T21:56:44;99767.66;;;4.33;100.00
35045;BME280;21231;48.394;34.964;2022-11-20T21:59:30;99767.66;;;4.33;100.00
35045;BME280;21231;48.394;34.964;2022-11-20T22:02:16;99768.53;;;4.33;100.00
35045;BME280;21231;48.394;34.964;2022-11-20T22:05:02;99773.88;;;4.36;100.00
35045;BME280;21231;48.394;34.964;2022-11-20T22:07:48;99775.56;;;4.36;100.00
35045;BME280;21231;48.394;34.964;2022-11-20T22:10:33;99768.66;;;4.35;100.00
35045;BME280;21231;48.394;34.964;2022-11-20T22:13:19;99762.78;;;4.36;100.00
35045;BME280;21231;48.394;34.964;2022-11-20T22:16:25;99775.75;;;4.39;100.00
35045;BME280;21231;48.394;34.964;2022-11-20T22:19:14;99778.53;;;4.42;100.00
35045;BME280;21231;48.394;34.964;2022-11-20T22:22:00;99770.09;;;4.43;100.00
35045;BME280;21231;48.394;34.964;2022-11-20T22:24:46;99776.22;;;4.45;100.00
35045;BME280;21231;48.394;34.964;2022-11-20T22:27:32;99760.00;;;4.45;100.00
35045;BME280;21231;48.394;34.964;2022-11-20T22:30:18;99760.00;;;4.45;100.00
35045;BME280;21231;48.394;34.964;2022-11-20T22:33:04;99751.81;;;4.49;100.00
35045;BME280;21231;48.394;34.964;2022-11-20T22:38:49;99749.19;;;4.59;100.00
35045;BME280;21231;48.394;34.964;2022-11-20T22:41:36;99740.72;;;4.60;100.00
35045;BME280;21231;48.394;34.964;2022-11-20T22:44:22;99729.53;;;4.70;100.00
35045;BME280;21231;48.394;34.964;2022-11-20T22:47:08;99724.97;;;4.78;100.00
35045;BME280;21231;48.394;34.964;2022-11-20T22:49:56;99725.63;;;4.87;100.00
35045;BME280;21231;48.394;34.964;2022-11-20T22:52:41;99724.53;;;4.84;100.00
35045;BME280;21231;48.394;34.964;2022-11-20T22:55:27;99721.88;;;4.82;100.00
35045;BME280;21231;48.394;34.964;2022-11-20T22:58:13;99715.06;;;4.83;100.00
35045;BME280;21231;48.394;34.964;2022-11-20T23:01:14;99713.41;;;4.83;100.00
35045;BME280;21231;48.394;34.964;2022-11-20T23:04:03;99711.88;;;4.85;100.00
35045;BME280;21231;48.394;34.964;2022-11-20T23:06:49;99700.19;;;4.89;100.00
35045;BME280;21231;48.394;34.964;2022-11-20T23:09:35;99710.72;;;4.93;100.00
35045;BME280;21231;48.394;34.964;2022-11-20T23:12:21;99712.41;;;4.93;100.00
35045;BME280;21231;48.394;34.964;2022-11-20T23:15:07;99717.75;;;4.96;100.00
35045;BME280;21231;48.394;34.964;2022-11-20T23:17:54;99715.50;;;5.01;100.00
35045;BME280;21231;48.394;34.964;2022-11-20T23:20:39;99710.84;;;5.07;100.00
35045;BME280;21231;48.394;34.964;2022-11-20T23:23:25;99715.69;;;5.16;100.00
35045;BME280;21231;48.394;34.964;2022-11-20T23:26:12;99716.22;;;5.24;100.00
35045;BME280;21231;48.394;34.964;2022-11-20T23:28:59;99709.44;;;5.24;100.00
35045;BME280;21231;48.394;34.964;2022-11-20T23:31:45;99717.34;;;5.27;100.00
35045;BME280;21231;48.394;34.964;2022-11-20T23:34:31;99716.66;;;5.30;100.00
35045;BME280;21231;48.394;34.964;2022-11-20T23:37:17;99725.41;;;5.34;100.00
35045;BME280;21231;48.394;34.964;2022-11-20T23:40:04;99733.19;;;5.35;100.00
35045;BME280;21231;48.394;34.964;2022-11-20T23:42:50;99720.06;;;5.42;100.00
35045;BME280;21231;48.394;34.964;2022-11-20T23:45:56;99720.59;;;5.50;100.00
35045;BME280;21231;48.394;34.964;2022-11-20T23:48:43;99728.66;;;5.56;100.00
35045;BME280;21231;48.394;34.964;2022-11-20T23:51:30;99708.66;;;5.63;100.00
35045;BME280;21231;48.394;34.964;2022-11-20T23:54:15;99715.97;;;5.70;100.00
35045;BME280;21231;48.394;34.964;2022-11-20T23:57:01;99716.38;;;5.76;100.00
35045;BME280;21231;48.394;34.964;2022-11-20T23:59:47;99715.97;;;5.70;100.00
